Flugplatz Kempten-Durach

Für EDMK sind keine METAR/TAF Berichte vorhanden.
Es werden die Flugwettermeldungen vom Flugplatz Memmingen Allgau in 33 km Entfernung angezeigt.

Bericht für EDJA

vom 23.05. um 18:20 UTC

Wind 6 kt aus 60°

Sichtweite 10 km oder mehr

gute Sicht, keine Wolken < 5000 ft, keine CB, keine Wettererscheinungen (CAVOK)

Temperatur 15.0°C

Taupunkt 9.0°C

Luftfeuchtigkeit 67%

Luftdruck 1017 hPa

EDJA 231820Z 06006KT CAVOK 15/09 Q1017

Prognose für EDJA

vom 23.05. um 17:00 UTC

Zwischen 18:00 UTC und 03:00 UTC

variable Windrichtung mit 3 kt

Sichtweite 10 km oder mehr

keine signifikanten Wettererscheinungen

keine Wolken

TAF EDJA 231700Z 2318/2403 VRB03KT CAVOK
Impressum